createdAt,value
2022-08-07T00:00:39.959Z,13.05
2022-08-07T00:03:07.265Z,12.95
2022-08-07T00:05:36.301Z,12.71
2022-08-07T00:08:04.968Z,12.48
2022-08-07T00:10:31.830Z,12.86
2022-08-07T00:13:01.070Z,12.45
2022-08-07T00:15:35.961Z,12.33
2022-08-07T00:18:05.299Z,12.14
2022-08-07T00:20:34.369Z,12.25
2022-08-07T00:23:02.772Z,12.22
2022-08-07T00:25:37.257Z,12.38
2022-08-07T00:28:04.376Z,12.62
2022-08-07T00:30:31.490Z,12.36
2022-08-07T00:32:58.859Z,12.16
2022-08-07T00:35:25.914Z,12.57
2022-08-07T00:37:53.176Z,12.22
2022-08-07T00:40:40.023Z,12.13
2022-08-07T00:43:09.699Z,12.13
2022-08-07T00:45:38.678Z,11.95
2022-08-07T00:48:09.436Z,12.00
2022-08-07T00:50:46.594Z,12.05
2022-08-07T00:53:17.631Z,11.80
2022-08-07T00:56:00.603Z,11.94
2022-08-07T00:58:30.070Z,12.03
2022-08-07T01:00:56.546Z,11.80
2022-08-07T01:03:54.583Z,11.75
2022-08-07T01:06:10.231Z,11.58
2022-08-07T01:08:51.251Z,11.95
2022-08-07T01:12:09.489Z,11.45
2022-08-07T01:14:07.972Z,11.62
2022-08-07T01:16:37.072Z,11.48
2022-08-07T01:19:14.827Z,11.54
2022-08-07T01:21:46.889Z,11.37
2022-08-07T01:24:14.651Z,11.42
2022-08-07T01:26:52.241Z,11.53
2022-08-07T01:29:22.462Z,11.34
2022-08-07T01:31:50.474Z,11.66
2022-08-07T01:34:20.335Z,11.62
2022-08-07T01:36:58.129Z,12.07
2022-08-07T01:39:39.585Z,12.16
2022-08-07T01:42:37.725Z,11.97
2022-08-07T01:44:54.632Z,11.86
2022-08-07T01:48:20.292Z,12.22
2022-08-07T01:50:08.611Z,11.64
2022-08-07T01:52:39.119Z,11.55
2022-08-07T01:55:22.186Z,11.39
2022-08-07T01:58:05.573Z,11.03
2022-08-07T02:00:35.586Z,11.14
2022-08-07T02:03:21.384Z,11.28
2022-08-07T02:05:59.622Z,11.07
2022-08-07T02:08:29.334Z,11.19
2022-08-07T02:10:59.671Z,11.57
2022-08-07T02:13:56.512Z,11.22
2022-08-07T02:16:19.913Z,11.18
2022-08-07T02:18:56.100Z,11.07
2022-08-07T02:21:24.226Z,11.03
2022-08-07T02:23:53.171Z,11.09
2022-08-07T02:26:32.759Z,10.97
2022-08-07T02:29:02.507Z,11.15
2022-08-07T02:31:31.054Z,11.54
2022-08-07T02:34:03.541Z,11.41
2022-08-07T02:36:33.819Z,10.98
2022-08-07T02:39:16.413Z,11.30
2022-08-07T02:41:54.961Z,10.87
2022-08-07T02:44:26.897Z,11.22
2022-08-07T02:46:59.913Z,10.77
2022-08-07T02:49:58.754Z,11.30
2022-08-07T02:52:21.563Z,10.90
2022-08-07T02:55:00.748Z,10.86
2022-08-07T02:57:28.713Z,10.78
2022-08-07T03:00:01.339Z,11.01
2022-08-07T03:02:32.584Z,11.17
2022-08-07T03:05:00.710Z,11.17
2022-08-07T03:08:05.301Z,11.07
2022-08-07T03:10:20.025Z,11.10
2022-08-07T03:12:51.146Z,10.92
2022-08-07T03:15:30.182Z,11.28
2022-08-07T03:18:06.459Z,10.82
2022-08-07T03:20:33.228Z,10.85
2022-08-07T03:23:02.659Z,10.61
2022-08-07T03:25:40.343Z,11.00
2022-08-07T03:28:37.763Z,10.81
2022-08-07T03:31:18.609Z,10.74
2022-08-07T03:33:48.962Z,10.82
2022-08-07T03:36:17.730Z,10.70
2022-08-07T03:38:45.568Z,10.94
2022-08-07T03:41:14.683Z,11.06
2022-08-07T03:43:56.755Z,11.05
2022-08-07T03:46:25.612Z,10.81
2022-08-07T03:49:03.144Z,11.03
2022-08-07T03:51:47.054Z,10.85
2022-08-07T03:54:36.279Z,10.80
2022-08-07T03:57:03.962Z,10.75
2022-08-07T03:59:34.083Z,10.64
2022-08-07T04:02:01.068Z,10.61
2022-08-07T04:04:28.092Z,10.51
2022-08-07T04:07:00.085Z,10.56
2022-08-07T04:09:44.867Z,10.97
2022-08-07T04:12:26.487Z,10.92
2022-08-07T04:14:57.103Z,10.91
2022-08-07T04:17:23.827Z,10.82
2022-08-07T04:20:12.239Z,11.01
2022-08-07T04:22:53.685Z,10.92
2022-08-07T04:25:29.058Z,11.12
2022-08-07T04:28:00.270Z,11.46
2022-08-07T04:30:40.208Z,11.54
2022-08-07T04:33:15.581Z,10.97
2022-08-07T04:35:50.507Z,11.31
2022-08-07T04:38:18.065Z,11.57
2022-08-07T04:40:52.816Z,12.09
2022-08-07T04:44:09.888Z,12.17
2022-08-07T04:46:40.023Z,11.38
2022-08-07T04:49:37.844Z,12.08
2022-08-07T04:52:30.240Z,12.45
2022-08-07T04:55:14.875Z,12.56
2022-08-07T04:58:26.584Z,12.40
2022-08-07T05:00:56.245Z,12.69
2022-08-07T05:04:06.743Z,12.69
2022-08-07T05:06:51.588Z,12.80
2022-08-07T05:09:45.909Z,12.94
2022-08-07T05:12:27.140Z,13.15
2022-08-07T05:15:21.609Z,13.05
2022-08-07T05:18:00.475Z,13.02
2022-08-07T05:20:32.469Z,13.30
2022-08-07T05:23:04.352Z,13.47
2022-08-07T05:26:01.928Z,13.56
2022-08-07T05:28:23.416Z,13.32
2022-08-07T05:30:56.773Z,13.65
2022-08-07T05:33:23.787Z,13.36
2022-08-07T05:35:53.363Z,13.93
2022-08-07T05:39:00.981Z,14.11
2022-08-07T05:41:16.745Z,13.60
2022-08-07T05:44:01.545Z,13.43
2022-08-07T05:46:37.640Z,13.90
2022-08-07T05:49:11.753Z,13.92
2022-08-07T05:51:40.065Z,13.88
2022-08-07T05:54:12.227Z,14.23
2022-08-07T05:56:55.391Z,14.45
2022-08-07T05:59:25.252Z,14.60
2022-08-07T06:01:57.077Z,14.74
2022-08-07T06:04:29.848Z,14.90
2022-08-07T06:07:03.711Z,14.98
2022-08-07T06:10:06.437Z,15.09
2022-08-07T06:25:10.144Z,15.66
2022-08-07T06:36:13.264Z,16.28
2022-08-07T06:46:53.249Z,16.60
2022-08-07T06:49:50.949Z,16.52
2022-08-07T06:52:31.501Z,16.77
2022-08-07T07:02:57.561Z,17.26
2022-08-07T07:06:23.950Z,17.38
2022-08-07T07:17:08.296Z,17.96
2022-08-07T07:20:21.580Z,18.57
2022-08-07T07:24:08.775Z,18.52
2022-08-07T07:26:36.931Z,18.87
2022-08-07T07:30:10.101Z,19.67
2022-08-07T07:39:54.713Z,20.19
2022-08-07T09:09:20.955Z,21.86
2022-08-07T09:16:43.843Z,20.60
2022-08-07T09:28:00.107Z,21.39
2022-08-07T10:14:00.824Z,22.11
2022-08-07T10:17:14.509Z,21.99
2022-08-07T10:46:01.121Z,21.23
2022-08-07T10:52:37.257Z,21.63
2022-08-07T11:21:06.830Z,23.36
2022-08-07T11:24:21.688Z,23.19
2022-08-07T11:27:02.190Z,22.87
2022-08-07T11:29:42.516Z,23.60
2022-08-07T11:37:06.693Z,23.48
2022-08-07T11:40:20.465Z,23.57
2022-08-07T11:43:08.899Z,23.76
2022-08-07T11:50:31.431Z,23.77
2022-08-07T11:53:01.089Z,23.96
2022-08-07T11:56:14.009Z,23.80
2022-08-07T11:59:22.164Z,24.39
2022-08-07T12:02:38.142Z,23.75
2022-08-07T12:06:39.959Z,24.47
2022-08-07T12:09:09.324Z,24.23
2022-08-07T12:12:09.414Z,23.75
2022-08-07T12:14:55.661Z,24.10
2022-08-07T12:17:34.139Z,24.03
2022-08-07T12:20:29.628Z,24.41
2022-08-07T12:24:05.800Z,24.39
2022-08-07T12:26:35.405Z,24.68
2022-08-07T12:29:38.421Z,24.05
2022-08-07T12:32:29.921Z,24.51
2022-08-07T12:35:00.995Z,24.26
2022-08-07T12:38:09.261Z,24.17
2022-08-07T12:40:47.109Z,24.55
2022-08-07T12:43:11.013Z,24.38
2022-08-07T12:46:15.791Z,24.61
2022-08-07T12:49:10.082Z,24.01
2022-08-07T12:52:13.965Z,24.76
2022-08-07T12:54:55.089Z,24.40
2022-08-07T12:57:39.267Z,24.61
2022-08-07T13:00:30.969Z,24.17
2022-08-07T13:03:26.812Z,24.36
2022-08-07T13:06:54.493Z,24.46
2022-08-07T13:10:19.770Z,24.50
2022-08-07T13:13:01.386Z,24.62
2022-08-07T13:15:59.057Z,24.80
2022-08-07T13:18:49.156Z,24.73
2022-08-07T13:21:51.759Z,24.32
2022-08-07T13:24:29.164Z,24.44
2022-08-07T13:27:05.454Z,24.68
2022-08-07T13:29:59.169Z,24.90
2022-08-07T13:32:31.695Z,25.16
2022-08-07T13:35:21.420Z,24.65
2022-08-07T13:38:01.835Z,24.57
2022-08-07T13:40:42.411Z,25.12
2022-08-07T13:43:17.541Z,24.68
2022-08-07T13:46:11.226Z,25.02
2022-08-07T13:48:59.470Z,24.97
2022-08-07T13:52:05.051Z,24.86
2022-08-07T13:54:37.982Z,24.81
2022-08-07T13:57:24.245Z,24.97
2022-08-07T14:00:00.378Z,24.82
2022-08-07T14:02:39.557Z,24.52
2022-08-07T14:05:14.336Z,25.15
2022-08-07T14:08:00.788Z,24.84
2022-08-07T14:10:43.524Z,25.15
2022-08-07T14:13:16.097Z,24.16
2022-08-07T14:15:53.504Z,24.17
2022-08-07T14:18:39.795Z,23.78
2022-08-07T14:22:01.788Z,24.41
2022-08-07T14:24:22.999Z,24.76
2022-08-07T14:26:57.675Z,24.58
2022-08-07T14:30:05.354Z,24.67
2022-08-07T14:32:25.012Z,24.36
2022-08-07T14:34:53.538Z,24.51
2022-08-07T14:37:23.775Z,24.49
2022-08-07T14:40:16.272Z,24.59
2022-08-07T14:42:59.980Z,24.10
2022-08-07T14:45:50.179Z,23.32
2022-08-07T14:48:20.376Z,23.46
2022-08-07T14:50:51.001Z,23.21
2022-08-07T14:54:05.532Z,22.40
2022-08-07T14:56:13.180Z,22.46
2022-08-07T14:58:54.178Z,22.62
2022-08-07T15:01:42.714Z,22.33
2022-08-07T15:04:18.840Z,21.95
2022-08-07T15:06:47.750Z,21.86
2022-08-07T15:09:57.233Z,21.66
2022-08-07T15:12:10.268Z,21.73
2022-08-07T15:15:07.683Z,21.86
2022-08-07T15:17:54.638Z,21.76
2022-08-07T15:20:33.130Z,21.76
2022-08-07T15:23:20.247Z,21.56
2022-08-07T15:26:03.394Z,21.47
2022-08-07T15:32:00.470Z,21.46
2022-08-07T15:34:15.111Z,21.72
2022-08-07T15:39:57.927Z,21.66
2022-08-07T15:42:47.916Z,22.30
2022-08-07T15:45:21.710Z,22.68
2022-08-07T15:48:13.229Z,22.77
2022-08-07T15:51:02.083Z,23.16
2022-08-07T15:53:52.165Z,23.50
2022-08-07T15:56:24.692Z,23.91
2022-08-07T15:59:04.073Z,24.37
2022-08-07T16:01:39.267Z,24.63
2022-08-07T16:04:15.323Z,24.18
2022-08-07T16:06:51.957Z,24.53
2022-08-07T16:09:41.997Z,24.90
2022-08-07T16:12:28.880Z,24.25
2022-08-07T16:15:57.738Z,24.58
2022-08-07T16:18:49.984Z,24.77
2022-08-07T16:22:17.933Z,24.73
2022-08-07T16:25:54.491Z,23.98
2022-08-07T16:30:05.841Z,23.87
2022-08-07T16:31:58.222Z,24.18
2022-08-07T16:34:52.294Z,24.08
2022-08-07T16:38:06.046Z,24.29
2022-08-07T16:41:01.907Z,23.48
2022-08-07T16:44:05.577Z,23.30
2022-08-07T16:47:02.978Z,23.49
2022-08-07T16:50:28.843Z,23.37
2022-08-07T16:54:01.444Z,23.41
2022-08-07T17:00:16.467Z,23.24
2022-08-07T17:03:58.233Z,23.11
2022-08-07T17:06:45.353Z,23.07
2022-08-07T17:10:07.381Z,23.46
2022-08-07T17:20:23.177Z,22.76
2022-08-07T17:23:14.863Z,22.42
2022-08-07T17:26:00.142Z,22.28
2022-08-07T17:34:08.646Z,22.22
2022-08-07T17:35:58.851Z,21.82
2022-08-07T17:38:37.284Z,22.10
2022-08-07T17:42:07.481Z,21.95
2022-08-07T17:44:50.546Z,21.87
2022-08-07T17:47:53.936Z,21.87
2022-08-07T17:50:34.130Z,21.63
2022-08-07T17:54:00.407Z,21.34
2022-08-07T17:56:28.604Z,21.23
2022-08-07T17:58:56.929Z,21.47
2022-08-07T18:01:36.839Z,21.37
2022-08-07T18:21:02.499Z,20.75
2022-08-07T18:23:42.314Z,20.88
2022-08-07T21:13:43.906Z,16.69
2022-08-07T21:56:16.726Z,16.32
2022-08-07T21:59:30.321Z,15.85
2022-08-07T22:06:30.598Z,15.89
2022-08-07T22:12:57.759Z,15.90
2022-08-07T22:18:59.532Z,15.61
2022-08-07T22:22:40.074Z,15.14
2022-08-07T22:32:46.654Z,15.13
2022-08-07T22:35:25.331Z,15.25
2022-08-07T22:38:25.593Z,15.44
2022-08-07T22:41:07.566Z,15.80
2022-08-07T22:44:04.710Z,15.73
2022-08-07T22:47:11.316Z,15.38
2022-08-07T22:50:20.905Z,15.90
2022-08-07T22:54:05.375Z,15.26
2022-08-07T23:04:36.108Z,15.35
2022-08-07T23:07:44.287Z,15.13
2022-08-07T23:10:42.584Z,14.97
2022-08-07T23:14:10.837Z,15.15
2022-08-07T23:17:08.621Z,15.43
2022-08-07T23:20:51.915Z,15.35
2022-08-07T23:24:06.781Z,15.06
2022-08-07T23:26:25.293Z,15.01
2022-08-07T23:30:36.362Z,14.71
2022-08-07T23:34:21.200Z,14.91
2022-08-07T23:36:10.701Z,14.91
2022-08-07T23:38:55.819Z,14.60
2022-08-07T23:42:02.079Z,14.46
2022-08-07T23:44:45.461Z,14.58
2022-08-07T23:47:42.456Z,14.76
2022-08-07T23:50:33.662Z,14.95
2022-08-07T23:53:51.752Z,14.53
2022-08-07T23:56:53.961Z,15.08
